Time;durP1;ratioP1;P1;durP2;ratioP2;P2;SDS_P1;SDS_P2;PMS_P1;PMS_P2;Temp;Humidity;BMP_temperature;BMP_pressure;BME280_temperature;BME280_humidity;BME280_pressure;Samples;Min_cycle;Max_cycle;Signal;HPM_P1;HPM_P2
2023/09/03 00:01:58;;;;;;;0.57;0.50;;;;;;;21.32;61.47;100046.50;4459948;32;34627;-80
2023/09/03 00:04:27;;;;;;;1.75;0.77;;;;;;;21.49;61.03;100049.12;4465199;32;33692;-79
2023/09/03 00:06:58;;;;;;;1.00;0.70;;;;;;;21.51;61.24;100051.69;4459752;32;33083;-81
2023/09/03 00:09:26;;;;;;;1.62;1.10;;;;;;;21.28;62.05;100050.22;4462667;32;36071;-80
2023/09/03 00:11:55;;;;;;;2.37;1.10;;;;;;;21.37;61.46;100047.09;4462212;32;34521;-81
2023/09/03 00:14:24;;;;;;;1.42;1.00;;;;;;;21.45;61.39;100042.28;4467799;32;33714;-81
2023/09/03 00:16:52;;;;;;;1.33;0.88;;;;;;;21.54;60.76;100038.31;4471119;32;33268;-80
2023/09/03 00:19:21;;;;;;;1.05;0.75;;;;;;;21.38;61.30;100037.37;4465291;32;34301;-81
2023/09/03 00:21:50;;;;;;;1.33;0.90;;;;;;;21.46;60.92;100032.59;4462755;32;32262;-81
2023/09/03 00:24:20;;;;;;;0.88;0.60;;;;;;;21.48;60.97;100034.22;4470990;32;34093;-82
2023/09/03 00:26:50;;;;;;;1.05;0.60;;;;;;;21.47;60.75;100027.22;4475315;32;32417;-81
2023/09/03 00:29:18;;;;;;;0.95;0.88;;;;;;;21.50;60.74;100028.84;4461735;32;33520;-81
2023/09/03 00:31:47;;;;;;;1.15;0.75;;;;;;;21.34;61.15;100022.66;4469885;32;34220;-80
2023/09/03 00:34:17;;;;;;;1.05;0.70;;;;;;;21.27;61.35;100019.50;4470509;32;33554;-81
2023/09/03 00:36:46;;;;;;;0.73;0.70;;;;;;;21.44;60.52;100027.41;4464957;32;33710;-81
2023/09/03 00:39:15;;;;;;;0.52;0.52;;;;;;;21.04;62.06;100025.94;4459874;32;34922;-82
2023/09/03 00:41:45;;;;;;;0.50;0.50;;;;;;;21.11;61.78;100019.41;4461176;32;33637;-81
2023/09/03 00:44:15;;;;;;;0.60;0.60;;;;;;;21.14;61.91;100018.41;4462882;32;34531;-80
2023/09/03 00:46:44;;;;;;;0.75;0.62;;;;;;;21.24;61.63;100020.50;4464142;32;33398;-80
2023/09/03 00:49:18;;;;;;;0.82;0.60;;;;;;;20.97;62.56;100021.91;4473518;32;33990;-81
2023/09/03 00:51:48;;;;;;;0.70;0.70;;;;;;;20.84;63.41;100029.59;4464020;32;33635;-80
2023/09/03 00:54:16;;;;;;;0.95;0.75;;;;;;;20.77;63.49;100039.59;4466451;32;33362;-80
2023/09/03 00:56:47;;;;;;;1.00;0.77;;;;;;;21.12;62.29;100030.81;4466530;32;33225;-79
2023/09/03 00:59:16;;;;;;;2.33;1.00;;;;;;;21.26;61.68;100025.69;4468312;32;33632;-79
2023/09/03 01:01:45;;;;;;;1.67;0.95;;;;;;;21.22;61.36;100025.00;4470632;32;34892;-81
2023/09/03 01:04:14;;;;;;;1.25;0.90;;;;;;;20.98;62.08;100028.91;4463031;32;34529;-80
2023/09/03 01:06:43;;;;;;;1.45;1.15;;;;;;;21.01;61.87;100037.50;4463119;32;32895;-80
2023/09/03 01:09:12;;;;;;;0.70;0.70;;;;;;;21.13;61.47;100024.63;4474744;32;34667;-80
2023/09/03 01:11:50;;;;;;;0.75;0.60;;;;;;;21.08;61.67;100024.88;4479955;32;33651;-80
2023/09/03 01:14:26;;;;;;;0.75;0.50;;;;;;;20.92;62.15;100016.00;4476786;32;33403;-79
2023/09/03 01:17:00;;;;;;;1.77;0.77;;;;;;;21.02;62.01;100011.97;4461123;32;33465;-81
2023/09/03 01:19:43;;;;;;;0.98;0.80;;;;;;;21.00;62.01;100004.16;4461062;32;34069;-81
2023/09/03 01:22:20;;;;;;;0.50;0.50;;;;;;;20.86;62.60;100007.50;4460932;32;33716;-79
2023/09/03 01:25:04;;;;;;;0.60;0.60;;;;;;;20.91;62.44;100007.25;4466520;32;33472;-79
2023/09/03 01:27:38;;;;;;;2.10;0.80;;;;;;;20.86;62.78;100010.13;4469785;32;32970;-80
2023/09/03 01:30:09;;;;;;;2.87;0.80;;;;;;;20.82;62.98;100000.66;4475739;32;33549;-80
2023/09/03 01:32:39;;;;;;;1.92;1.02;;;;;;;20.87;62.57;99997.78;4476017;32;33941;-81
2023/09/03 01:35:09;;;;;;;0.70;0.60;;;;;;;20.82;62.91;99997.16;4476276;32;33540;-80
2023/09/03 01:37:39;;;;;;;2.58;0.88;;;;;;;20.97;62.27;100004.31;4481854;32;32869;-82
2023/09/03 01:40:12;;;;;;;1.10;0.65;;;;;;;20.80;62.66;100012.22;4464644;32;33921;-80
2023/09/03 01:42:42;;;;;;;0.57;0.57;;;;;;;20.66;63.40;100013.78;4471442;32;33997;-80
2023/09/03 01:45:12;;;;;;;0.73;0.70;;;;;;;20.72;62.88;100009.97;4473603;32;33798;-79
2023/09/03 01:47:46;;;;;;;1.27;0.62;;;;;;;20.78;62.94;100007.03;4462363;32;32571;-81
2023/09/03 01:50:19;;;;;;;0.75;0.75;;;;;;;20.67;63.15;100001.44;4470123;32;34156;-82
2023/09/03 01:52:53;;;;;;;1.20;0.90;;;;;;;20.43;64.16;99998.19;4460390;32;33605;-81
2023/09/03 01:55:22;;;;;;;1.70;0.85;;;;;;;20.49;63.85;100002.31;4461078;32;33936;-80
2023/09/03 01:57:54;;;;;;;0.93;0.60;;;;;;;20.45;63.96;100005.09;4464748;32;33383;-81
2023/09/03 02:00:26;;;;;;;1.20;0.98;;;;;;;20.67;63.32;100006.72;4483044;32;34456;-81
2023/09/03 02:02:55;;;;;;;;;;;;;;;20.57;63.53;100006.31;4478271;31;34782;-81
2023/09/03 02:05:24;;;;;;;1.02;0.62;;;;;;;20.52;63.68;100010.94;4468524;32;33504;-80
2023/09/03 02:07:53;;;;;;;0.60;0.57;;;;;;;20.59;63.61;100011.53;4460305;32;33625;-81
2023/09/03 02:10:22;;;;;;;0.50;0.50;;;;;;;20.52;63.60;100012.72;4471160;32;33780;-80
2023/09/03 02:12:50;;;;;;;0.88;0.62;;;;;;;20.63;63.43;100010.41;4467676;32;33607;-81
2023/09/03 02:15:19;;;;;;;1.25;0.70;;;;;;;20.36;64.11;100013.44;4468023;32;33607;-80
2023/09/03 02:17:50;;;;;;;2.30;1.00;;;;;;;20.42;63.84;100004.41;4477867;32;33057;-80
2023/09/03 02:20:18;;;;;;;1.53;0.80;;;;;;;20.43;63.64;100014.84;4477069;32;32887;-80
2023/09/03 02:22:47;;;;;;;0.90;0.73;;;;;;;20.38;63.74;100011.59;4483582;32;35717;-80
2023/09/03 02:25:16;;;;;;;4.68;0.70;;;;;;;20.39;63.85;100008.06;4471107;32;33669;-80
2023/09/03 02:27:45;;;;;;;0.90;0.60;;;;;;;20.15;64.79;100015.34;4462323;32;33460;-80
2023/09/03 02:30:16;;;;;;;0.95;0.68;;;;;;;20.45;63.65;100010.37;4462158;32;33977;-80
2023/09/03 02:32:44;;;;;;;;;;;;;;;20.41;63.65;100014.06;4462138;32;34062;-80
2023/09/03 02:35:15;;;;;;;1.90;0.90;;;;;;;20.42;63.79;100015.81;4467932;32;33730;-79
2023/09/03 02:37:44;;;;;;;1.30;0.82;;;;;;;20.37;64.33;100023.06;4476154;31;32787;-81
2023/09/03 02:40:14;;;;;;;1.15;0.70;;;;;;;20.37;63.94;100022.19;4478848;32;33650;-80
2023/09/03 02:42:43;;;;;;;0.95;0.60;;;;;;;20.41;64.01;100018.50;4477528;32;34647;-79
2023/09/03 02:45:12;;;;;;;0.75;0.60;;;;;;;20.49;63.69;100019.00;4471781;32;33485;-81
2023/09/03 02:47:41;;;;;;;1.45;0.60;;;;;;;20.39;64.22;100022.97;4460002;32;33257;-80
2023/09/03 02:50:10;;;;;;;0.90;0.60;;;;;;;20.51;63.86;100022.38;4464466;32;34112;-80
2023/09/03 02:52:40;;;;;;;0.95;0.65;;;;;;;20.48;63.96;100021.69;4461411;32;34819;-80
2023/09/03 02:55:10;;;;;;;2.92;0.98;;;;;;;20.50;64.00;100027.75;4473887;32;35174;-81
2023/09/03 02:57:39;;;;;;;0.82;0.60;;;;;;;20.45;64.23;100020.91;4473517;32;32352;-80
2023/09/03 03:00:10;;;;;;;1.12;0.75;;;;;;;20.56;63.09;100020.44;4466180;32;34544;-82
2023/09/03 03:02:39;;;;;;;1.37;0.70;;;;;;;20.46;63.81;100027.03;4477619;32;34049;-80
2023/09/03 03:05:09;;;;;;;1.08;0.82;;;;;;;20.38;63.72;100016.87;4472449;32;33995;-80
2023/09/03 03:07:40;;;;;;;0.70;0.57;;;;;;;20.63;63.03;100024.47;4466482;32;33345;-79
2023/09/03 03:10:11;;;;;;;0.73;0.70;;;;;;;20.63;63.42;100027.13;4460902;32;34901;-81
2023/09/03 03:12:40;;;;;;;;;;;;;;;20.71;63.34;100024.09;4467859;32;33672;-80
2023/09/03 03:15:09;;;;;;;0.50;0.50;;;;;;;20.64;63.67;100022.69;4460924;32;34430;-81
2023/09/03 03:17:38;;;;;;;0.73;0.73;;;;;;;20.65;63.76;100022.59;4473752;32;32959;-80
2023/09/03 03:20:12;;;;;;;1.20;0.65;;;;;;;20.54;64.07;100026.66;4482716;31;34425;-80
2023/09/03 03:22:41;;;;;;;0.70;0.70;;;;;;;20.62;64.02;100021.91;4461801;32;33634;-81
2023/09/03 03:25:11;;;;;;;0.40;0.40;;;;;;;20.54;64.19;100021.38;4469894;32;33830;-81
2023/09/03 03:27:40;;;;;;;0.70;0.65;;;;;;;20.81;63.13;100022.69;4473695;32;32341;-80
2023/09/03 03:30:09;;;;;;;0.55;0.55;;;;;;;20.91;62.71;100020.44;4467621;32;33742;-80
2023/09/03 03:32:38;;;;;;;0.50;0.47;;;;;;;20.72;63.32;100031.06;4462980;32;33510;-81
2023/09/03 03:35:08;;;;;;;1.50;0.68;;;;;;;20.86;62.77;100033.00;4477414;32;34328;-81
2023/09/03 03:37:39;;;;;;;0.75;0.60;;;;;;;20.86;62.61;100030.37;4476911;31;33640;-80
2023/09/03 03:40:10;;;;;;;1.15;0.70;;;;;;;20.85;62.53;100031.28;4480437;32;33639;-80
2023/09/03 03:42:40;;;;;;;;;;;;;;;20.76;62.87;100034.41;4483065;32;33759;-79
2023/09/03 03:45:09;;;;;;;1.12;0.50;;;;;;;20.78;62.48;100038.69;4470451;32;34594;-80
2023/09/03 03:47:38;;;;;;;1.58;0.70;;;;;;;20.66;62.92;100039.28;4461788;32;34141;-81
2023/09/03 03:50:07;;;;;;;1.77;0.80;;;;;;;20.73;62.78;100043.34;4465532;32;33949;-80
2023/09/03 03:52:37;;;;;;;1.00;0.68;;;;;;;20.77;62.68;100052.78;4483091;32;34842;-81
2023/09/03 03:55:06;;;;;;;1.95;0.93;;;;;;;20.72;62.86;100052.16;4466301;32;33507;-80
2023/09/03 03:57:35;;;;;;;1.00;0.70;;;;;;;20.85;62.70;100055.91;4461290;32;33276;-80
2023/09/03 04:00:08;;;;;;;1.25;0.85;;;;;;;20.86;62.67;100065.50;4462329;32;33924;-81
2023/09/03 04:02:39;;;;;;;2.17;1.50;;;;;;;20.78;63.00;100072.06;4473020;32;34525;-80
2023/09/03 04:05:09;;;;;;;1.58;0.90;;;;;;;20.63;63.53;100095.66;4483067;32;34148;-80
2023/09/03 04:07:38;;;;;;;1.73;0.80;;;;;;;20.48;63.44;100091.06;4475783;32;32337;-82
2023/09/03 04:10:07;;;;;;;1.02;0.70;;;;;;;20.22;64.53;100094.91;4466141;32;33648;-80
2023/09/03 04:12:36;;;;;;;1.05;0.50;;;;;;;20.74;62.84;100123.28;4470339;32;33655;-80
2023/09/03 04:15:07;;;;;;;0.80;0.57;;;;;;;20.35;64.26;100119.78;4468089;32;34506;-82
2023/09/03 04:17:36;;;;;;;0.77;0.57;;;;;;;20.27;65.18;100102.63;4468202;32;33238;-80
2023/09/03 04:20:07;;;;;;;0.93;0.65;;;;;;;20.63;63.52;100097.41;4463930;32;33439;-81
2023/09/03 04:22:38;;;;;;;0.82;0.55;;;;;;;20.62;63.67;100107.09;4469763;32;33584;-81
2023/09/03 04:25:08;;;;;;;2.30;0.90;;;;;;;20.53;64.36;100120.69;4475330;32;34679;-80
2023/09/03 04:27:38;;;;;;;0.85;0.68;;;;;;;20.56;64.36;100111.81;4469227;32;33641;-80
2023/09/03 04:30:10;;;;;;;1.12;0.75;;;;;;;20.39;65.39;100113.47;4465187;32;33731;-81
2023/09/03 04:32:39;;;;;;;0.95;0.60;;;;;;;20.35;65.49;100119.78;4461898;32;34287;-80
2023/09/03 04:35:09;;;;;;;1.58;0.70;;;;;;;20.56;64.42;100110.06;4465611;32;33447;-80
2023/09/03 04:37:37;;;;;;;1.48;0.68;;;;;;;20.40;65.25;100115.16;4466831;32;32886;-81
2023/09/03 04:40:09;;;;;;;0.98;0.62;;;;;;;20.40;65.37;100114.31;4471059;32;34343;-81
2023/09/03 04:42:39;;;;;;;0.95;0.68;;;;;;;20.96;63.72;100107.25;4459988;32;33659;-80
2023/09/03 04:45:10;;;;;;;1.33;0.80;;;;;;;20.97;64.50;100095.75;4475348;32;33378;-80
2023/09/03 04:47:39;;;;;;;0.43;0.43;;;;;;;21.01;64.29;100094.69;4465467;32;33194;-80
2023/09/03 04:50:09;;;;;;;0.70;0.70;;;;;;;21.20;64.24;100084.91;4479683;32;34334;-80
2023/09/03 04:52:42;;;;;;;0.82;0.50;;;;;;;21.16;64.11;100082.50;4464077;32;33156;-80
2023/09/03 04:55:14;;;;;;;0.70;0.60;;;;;;;21.29;63.77;100092.38;4468130;32;33644;-81
2023/09/03 04:57:44;;;;;;;0.57;0.57;;;;;;;21.36;62.71;100095.56;4468460;32;33343;-80
2023/09/03 05:00:14;;;;;;;0.57;0.52;;;;;;;21.50;62.14;100086.94;4480441;32;33512;-79
2023/09/03 05:02:44;;;;;;;;;;;;;;;21.63;61.83;100079.25;4472602;32;34403;-81
2023/09/03 05:05:13;;;;;;;2.25;0.75;;;;;;;21.55;61.15;100084.06;4468167;32;33413;-80
2023/09/03 05:07:42;;;;;;;0.60;0.60;;;;;;;21.78;59.86;100085.50;4462260;32;35549;-80
2023/09/03 05:10:12;;;;;;;0.40;0.40;;;;;;;21.86;59.25;100072.72;4462276;31;32330;-80
2023/09/03 05:12:41;;;;;;;0.77;0.40;;;;;;;21.59;57.55;100075.03;4475203;32;33596;-81
2023/09/03 05:15:11;;;;;;;2.30;0.60;;;;;;;21.81;56.28;100077.41;4474366;32;33550;-80
2023/09/03 05:17:42;;;;;;;0.30;0.30;;;;;;;21.52;58.14;100080.63;4459942;32;32203;-80
2023/09/03 05:20:11;;;;;;;0.37;0.37;;;;;;;20.98;59.88;100081.66;4460376;32;34155;-81
2023/09/03 05:22:39;;;;;;;0.57;0.40;;;;;;;21.34;60.35;100078.09;4466622;32;34419;-81
2023/09/03 05:25:09;;;;;;;0.30;0.30;;;;;;;21.43;60.64;100089.06;4469994;32;33794;-78
2023/09/03 05:27:38;;;;;;;0.80;0.50;;;;;;;21.38;60.65;100085.75;4475738;32;33942;-80
2023/09/03 05:30:08;;;;;;;0.62;0.62;;;;;;;20.31;66.57;100091.87;4478376;32;34010;-80
2023/09/03 05:32:38;;;;;;;0.20;0.20;;;;;;;19.50;73.02;100080.59;4482137;32;35112;-78
2023/09/03 05:35:09;;;;;;;1.58;0.40;;;;;;;19.77;71.63;100094.34;4474296;32;33664;-79
2023/09/03 05:37:40;;;;;;;0.30;0.30;;;;;;;19.44;74.56;100099.25;4460731;32;33313;-80
2023/09/03 05:40:11;;;;;;;0.45;0.32;;;;;;;19.13;76.73;100097.94;4468626;32;33967;-78
2023/09/03 05:42:40;;;;;;;0.43;0.40;;;;;;;19.02;78.37;100086.19;4475958;32;34007;-78
2023/09/03 05:45:09;;;;;;;0.68;0.50;;;;;;;19.08;78.34;100078.88;4480859;32;34414;-78
2023/09/03 05:47:38;;;;;;;0.45;0.45;;;;;;;19.80;75.15;100077.53;4474589;32;33092;-79
2023/09/03 05:50:10;;;;;;;0.93;0.40;;;;;;;19.85;75.11;100099.25;4466566;32;34385;-78
2023/09/03 05:52:39;;;;;;;1.48;0.77;;;;;;;19.84;76.62;100097.56;4460687;32;33890;-78
2023/09/03 05:55:08;;;;;;;0.50;0.50;;;;;;;19.76;78.13;100094.37;4480142;32;34374;-79
2023/09/03 05:57:37;;;;;;;1.00;0.50;;;;;;;19.31;79.50;100100.72;4468551;32;33071;-78
2023/09/03 06:00:07;;;;;;;0.30;0.30;;;;;;;19.38;79.21;100104.81;4463961;32;33660;-79
2023/09/03 06:02:37;;;;;;;0.52;0.52;;;;;;;20.04;75.72;100122.97;4466215;32;32183;-77
2023/09/03 06:05:07;;;;;;;0.47;0.47;;;;;;;20.16;74.68;100129.47;4471608;32;34097;-78
2023/09/03 06:07:38;;;;;;;0.35;0.35;;;;;;;20.10;73.23;100127.09;4467876;32;33598;-80
2023/09/03 06:10:07;;;;;;;1.77;0.73;;;;;;;19.81;76.49;100113.47;4460121;32;32893;-79
2023/09/03 06:12:36;;;;;;;0.30;0.30;;;;;;;20.14;75.90;100092.66;4461984;32;33808;-79
2023/09/03 06:15:06;;;;;;;0.93;0.60;;;;;;;20.00;76.84;100085.38;4459696;32;33497;-79
2023/09/03 06:17:35;;;;;;;0.40;0.40;;;;;;;19.76;77.94;100092.59;4465322;32;33344;-78
2023/09/03 06:20:05;;;;;;;0.30;0.30;;;;;;;19.86;77.56;100087.81;4459859;32;33742;-78
2023/09/03 06:22:34;;;;;;;0.55;0.50;;;;;;;19.50;78.37;100084.97;4459068;32;34992;-78
2023/09/03 06:25:05;;;;;;;1.05;0.50;;;;;;;19.84;76.77;100079.12;4459908;32;33577;-79
2023/09/03 06:27:34;;;;;;;0.47;0.47;;;;;;;19.61;78.50;100083.59;4461570;32;34413;-79
2023/09/03 06:30:07;;;;;;;0.95;0.65;;;;;;;19.93;76.68;100083.09;4472424;32;34736;-79
2023/09/03 06:32:37;;;;;;;0.35;0.35;;;;;;;19.65;80.21;100097.47;4466826;32;33873;-79
2023/09/03 06:35:06;;;;;;;0.40;0.40;;;;;;;19.65;79.78;100110.63;4466797;32;34081;-79
2023/09/03 06:37:35;;;;;;;1.15;0.70;;;;;;;19.91;79.22;100106.88;4467682;32;34149;-78
2023/09/03 06:40:07;;;;;;;1.12;0.50;;;;;;;20.00;78.25;100122.25;4466011;32;33821;-78
2023/09/03 06:42:36;;;;;;;0.70;0.60;;;;;;;19.97;77.13;100134.72;4462274;32;34771;-78
2023/09/03 06:45:06;;;;;;;0.43;0.40;;;;;;;20.11;77.40;100145.47;4463047;32;33774;-77
2023/09/03 06:47:34;;;;;;;0.73;0.55;;;;;;;20.38;75.63;100148.63;4461375;32;33774;-78
2023/09/03 06:50:04;;;;;;;0.70;0.47;;;;;;;20.46;76.99;100157.03;4463692;32;34329;-78
2023/09/03 06:52:32;;;;;;;0.50;0.47;;;;;;;20.60;77.03;100159.03;4472447;32;34031;-78
2023/09/03 06:55:01;;;;;;;2.70;0.93;;;;;;;20.74;77.71;100158.41;4468297;32;33853;-79
2023/09/03 06:57:32;;;;;;;0.93;0.40;;;;;;;20.91;77.45;100156.75;4464114;32;33343;-78
2023/09/03 07:00:05;;;;;;;0.40;0.40;;;;;;;20.91;78.66;100147.03;4477332;32;32832;-78
2023/09/03 07:02:35;;;;;;;1.23;0.70;;;;;;;21.13;78.40;100140.72;4468219;32;33648;-78
2023/09/03 07:05:04;;;;;;;0.40;0.40;;;;;;;21.25;78.43;100133.03;4468274;32;33728;-78
2023/09/03 07:07:33;;;;;;;1.35;0.68;;;;;;;21.43;77.74;100125.13;4467183;32;33140;-77
2023/09/03 07:10:03;;;;;;;0.75;0.60;;;;;;;21.50;77.25;100137.09;4463395;32;33598;-78
2023/09/03 07:12:33;;;;;;;0.37;0.37;;;;;;;21.58;76.89;100134.91;4463440;32;34643;-79
2023/09/03 07:15:01;;;;;;;1.27;0.47;;;;;;;21.60;77.33;100135.69;4476831;32;34348;-77
2023/09/03 07:17:31;;;;;;;0.62;0.40;;;;;;;21.63;78.15;100138.16;4465674;32;33888;-78
2023/09/03 07:20:00;;;;;;;1.15;0.90;;;;;;;21.71;77.47;100125.41;4461018;32;34247;-79
2023/09/03 07:22:29;;;;;;;0.55;0.43;;;;;;;21.65;76.68;100124.87;4470493;32;33540;-78
2023/09/03 07:24:58;;;;;;;0.50;0.50;;;;;;;21.91;76.22;100121.72;4482036;32;34085;-78
2023/09/03 07:27:27;;;;;;;1.12;0.40;;;;;;;22.04;75.58;100124.56;4469609;32;32880;-78
2023/09/03 07:29:57;;;;;;;0.47;0.40;;;;;;;22.00;75.59;100127.47;4476119;32;33276;-79
2023/09/03 07:32:26;;;;;;;0.82;0.32;;;;;;;22.11;75.10;100123.31;4477488;32;33164;-77
2023/09/03 07:34:55;;;;;;;0.62;0.57;;;;;;;22.05;73.77;100128.06;4467112;32;33599;-78
2023/09/03 07:37:23;;;;;;;0.52;0.40;;;;;;;22.27;72.98;100122.50;4466254;32;33068;-78
2023/09/03 07:39:52;;;;;;;2.15;0.68;;;;;;;22.34;73.23;100126.50;4466444;32;33616;-78
2023/09/03 07:42:21;;;;;;;0.75;0.32;;;;;;;22.51;73.37;100130.84;4466959;32;34735;-78
2023/09/03 07:44:50;;;;;;;0.40;0.40;;;;;;;22.53;72.74;100142.22;4465138;32;33645;-77
2023/09/03 07:47:24;;;;;;;0.62;0.40;;;;;;;22.68;72.81;100141.34;4465296;32;34888;-78
2023/09/03 07:49:52;;;;;;;;;;;;;;;22.82;72.58;100148.50;4459959;32;33678;-77
2023/09/03 07:52:21;;;;;;;0.28;0.28;;;;;;;22.82;72.40;100147.66;4466777;32;33879;-78
2023/09/03 07:54:50;;;;;;;0.62;0.40;;;;;;;23.07;71.13;100140.03;4467758;32;33518;-78
2023/09/03 07:57:19;;;;;;;0.50;0.40;;;;;;;23.07;70.49;100142.69;4470706;32;31748;-77
2023/09/03 07:59:47;;;;;;;0.30;0.30;;;;;;;23.19;70.39;100147.25;4468034;32;34010;-77
2023/09/03 08:02:21;;;;;;;0.40;0.30;;;;;;;23.36;69.66;100142.78;4461779;32;34547;-77
2023/09/03 08:04:51;;;;;;;0.50;0.35;;;;;;;23.32;69.45;100143.91;4468040;32;34794;-78
2023/09/03 08:07:20;;;;;;;0.32;0.32;;;;;;;23.51;68.09;100141.87;4464551;32;33474;-78
2023/09/03 08:09:50;;;;;;;0.35;0.30;;;;;;;23.41;68.41;100138.06;4464883;32;33649;-78
2023/09/03 08:12:18;;;;;;;0.50;0.22;;;;;;;23.43;69.11;100139.66;4466868;32;33946;-78
2023/09/03 08:14:48;;;;;;;0.90;0.50;;;;;;;23.51;68.93;100133.94;4459259;32;34425;-78
2023/09/03 08:17:17;;;;;;;0.73;0.43;;;;;;;23.46;67.50;100132.50;4460771;32;33983;-78
2023/09/03 08:19:47;;;;;;;0.82;0.30;;;;;;;23.52;68.18;100137.44;4466485;32;33489;-79
2023/09/03 08:22:17;;;;;;;1.00;0.60;;;;;;;23.67;68.65;100141.78;4462981;32;34358;-77
2023/09/03 08:24:46;;;;;;;0.22;0.22;;;;;;;23.80;68.92;100144.56;4466260;32;31763;-77
2023/09/03 08:27:15;;;;;;;1.12;0.55;;;;;;;23.84;65.26;100149.59;4465294;31;33915;-77
2023/09/03 08:29:44;;;;;;;2.45;0.82;;;;;;;23.94;64.96;100141.09;4463083;32;33978;-78
2023/09/03 08:32:13;;;;;;;0.57;0.40;;;;;;;23.90;63.93;100153.69;4470359;32;34027;-78
2023/09/03 08:34:41;;;;;;;0.43;0.43;;;;;;;23.90;64.76;100147.56;4465716;32;33716;-78
2023/09/03 08:37:10;;;;;;;2.17;0.57;;;;;;;24.06;63.36;100148.28;4464689;32;33460;-78
2023/09/03 08:39:41;;;;;;;0.85;0.60;;;;;;;23.84;65.19;100144.31;4467630;32;33325;-78
2023/09/03 08:42:11;;;;;;;0.40;0.40;;;;;;;24.00;66.98;100140.72;4472513;32;31530;-79
2023/09/03 08:44:46;;;;;;;0.57;0.40;;;;;;;24.34;64.78;100146.56;4469809;32;33702;-78
2023/09/03 08:47:17;;;;;;;0.73;0.40;;;;;;;24.33;64.69;100142.19;4464917;32;33369;-78
2023/09/03 08:49:46;;;;;;;0.73;0.45;;;;;;;24.44;64.21;100129.13;4463530;32;34339;-78
2023/09/03 08:52:16;;;;;;;0.37;0.30;;;;;;;24.52;61.24;100131.31;4462986;32;33879;-79
2023/09/03 08:54:47;;;;;;;0.30;0.30;;;;;;;24.55;59.78;100131.97;4468716;32;35262;-78
2023/09/03 08:57:16;;;;;;;0.70;0.45;;;;;;;24.28;60.74;100134.53;4464763;32;32474;-79
2023/09/03 08:59:45;;;;;;;0.88;0.40;;;;;;;24.18;61.33;100134.25;4457642;32;33379;-78
2023/09/03 09:02:17;;;;;;;0.68;0.40;;;;;;;23.88;62.23;100131.72;4462636;32;33949;-79
2023/09/03 09:04:46;;;;;;;0.85;0.40;;;;;;;23.98;61.67;100140.81;4469972;32;33525;-79
2023/09/03 09:07:15;;;;;;;0.30;0.30;;;;;;;23.98;61.05;100138.16;4465342;32;33192;-78
2023/09/03 09:09:44;;;;;;;0.43;0.40;;;;;;;23.87;62.67;100145.06;4467599;32;33855;-79
2023/09/03 09:12:18;;;;;;;1.85;1.27;;;;;;;24.18;61.82;100152.81;4468157;32;33621;-78
2023/09/03 09:14:53;;;;;;;1.23;0.80;;;;;;;24.06;62.12;100145.63;4465841;32;35154;-79
2023/09/03 09:17:22;;;;;;;0.68;0.62;;;;;;;24.07;61.20;100144.69;4469727;32;32656;-77
2023/09/03 09:19:51;;;;;;;1.12;0.73;;;;;;;23.97;63.13;100138.25;4464764;32;34601;-78
2023/09/03 09:22:20;;;;;;;0.68;0.52;;;;;;;24.23;61.62;100129.50;4468219;32;33736;-79
2023/09/03 09:24:52;;;;;;;1.17;0.60;;;;;;;24.23;61.87;100137.47;4466241;32;33184;-78
2023/09/03 09:27:22;;;;;;;2.30;0.55;;;;;;;24.23;61.25;100136.63;4473047;32;33127;-79
2023/09/03 09:29:51;;;;;;;;;;;;;;;24.40;61.89;100139.06;4477954;32;33930;-78
2023/09/03 09:32:21;;;;;;;0.90;0.50;;;;;;;24.63;62.47;100150.91;4472231;32;34223;-79
2023/09/03 09:34:49;;;;;;;0.85;0.45;;;;;;;24.80;59.63;100159.56;4462655;32;34560;-78
2023/09/03 09:37:18;;;;;;;0.62;0.43;;;;;;;24.58;56.90;100168.91;4472505;32;33087;-78
2023/09/03 09:39:50;;;;;;;0.30;0.30;;;;;;;24.51;55.20;100164.94;4478175;32;33858;-79
2023/09/03 09:42:19;;;;;;;0.52;0.30;;;;;;;24.58;55.15;100150.34;4464663;32;30947;-78
2023/09/03 09:44:59;;;;;;;0.57;0.32;;;;;;;24.62;53.27;100143.91;4464934;32;34611;-79
2023/09/03 09:47:28;;;;;;;0.47;0.28;;;;;;;24.74;56.02;100146.69;4460496;32;33714;-78
2023/09/03 09:49:57;;;;;;;0.30;0.30;;;;;;;24.56;54.37;100148.75;4463525;32;33526;-78
2023/09/03 09:52:35;;;;;;;0.43;0.25;;;;;;;24.67;55.68;100157.72;4468444;32;33815;-79
2023/09/03 09:55:05;;;;;;;0.45;0.35;;;;;;;24.41;55.04;100147.88;4460626;32;33322;-78
2023/09/03 09:57:34;;;;;;;0.73;0.30;;;;;;;24.44;55.22;100158.28;4460214;32;33396;-78
2023/09/03 10:00:06;;;;;;;0.37;0.37;;;;;;;24.36;54.41;100160.59;4459608;32;34483;-80
2023/09/03 10:02:37;;;;;;;0.85;0.40;;;;;;;24.18;54.30;100167.88;4465435;32;33769;-78
2023/09/03 10:05:09;;;;;;;0.20;0.20;;;;;;;24.19;54.84;100178.41;4460590;32;34559;-79
2023/09/03 10:07:40;;;;;;;0.50;0.30;;;;;;;23.98;55.06;100172.63;4468033;32;33769;-77
2023/09/03 10:10:10;;;;;;;0.37;0.32;;;;;;;24.09;54.15;100166.66;4466733;32;34542;-77
2023/09/03 10:12:39;;;;;;;0.47;0.30;;;;;;;23.75;56.08;100165.19;4477925;32;33973;-76
2023/09/03 10:15:12;;;;;;;0.60;0.50;;;;;;;24.09;56.31;100165.78;4482313;31;34759;-76
2023/09/03 10:17:42;;;;;;;0.20;0.20;;;;;;;23.98;55.25;100166.47;4471130;31;33661;-77
2023/09/03 10:20:15;;;;;;;0.30;0.30;;;;;;;23.85;56.32;100166.37;4476315;31;33733;-77
2023/09/03 10:22:45;;;;;;;1.60;0.50;;;;;;;23.95;55.22;100161.38;4466844;31;34330;-76
2023/09/03 10:25:16;;;;;;;0.73;0.30;;;;;;;24.00;55.01;100153.97;4473444;32;33547;-77
2023/09/03 10:27:48;;;;;;;0.20;0.20;;;;;;;24.24;55.48;100168.34;4467185;32;34033;-77
2023/09/03 10:30:22;;;;;;;0.32;0.30;;;;;;;24.36;54.66;100168.53;4464232;32;34584;-77
2023/09/03 10:32:53;;;;;;;0.30;0.30;;;;;;;24.36;53.97;100164.09;4469024;32;33940;-76
2023/09/03 10:35:22;;;;;;;0.20;0.20;;;;;;;24.37;55.25;100171.09;4461915;32;34172;-76
2023/09/03 10:37:51;;;;;;;0.25;0.25;;;;;;;24.15;55.32;100160.97;4465109;32;33676;-76
2023/09/03 10:40:24;;;;;;;0.65;0.35;;;;;;;23.81;55.68;100159.53;4459724;32;33951;-77
2023/09/03 10:42:55;;;;;;;0.88;0.40;;;;;;;23.92;56.96;100156.22;4473660;32;33778;-79
2023/09/03 10:45:25;;;;;;;0.57;0.47;;;;;;;23.89;57.26;100161.72;4473491;32;33348;-78
2023/09/03 10:48:03;;;;;;;0.62;0.40;;;;;;;24.10;56.94;100155.09;4477102;32;33015;-78
2023/09/03 10:50:43;;;;;;;0.98;0.65;;;;;;;23.90;57.05;100144.91;4474924;32;33434;-79
2023/09/03 10:53:36;;;;;;;0.25;0.25;;;;;;;23.77;57.65;100148.28;4459912;32;33706;-79
2023/09/03 10:56:12;;;;;;;0.30;0.30;;;;;;;23.69;58.47;100161.09;4460428;32;34064;-79
2023/09/03 10:58:55;;;;;;;0.30;0.30;;;;;;;23.84;58.21;100152.25;4460696;32;34154;-79
2023/09/03 11:01:31;;;;;;;0.20;0.20;;;;;;;23.71;59.17;100142.47;4460283;32;33873;-79
2023/09/03 11:04:01;;;;;;;0.62;0.30;;;;;;;23.55;59.90;100142.53;4460048;32;34389;-78
2023/09/03 11:06:32;;;;;;;0.63;0.43;;;;;;;23.66;58.76;100149.84;4466483;32;34576;-78
2023/09/03 11:09:24;;;;;;;0.65;0.40;;;;;;;23.60;58.34;100153.72;4460897;32;33207;-79
2023/09/03 11:12:02;;;;;;;0.50;0.50;;;;;;;23.67;59.07;100155.03;4468094;32;33497;-78
2023/09/03 11:14:32;;;;;;;1.12;0.40;;;;;;;23.74;58.81;100151.09;4476661;32;33679;-79
2023/09/03 11:17:11;;;;;;;0.82;0.52;;;;;;;23.58;58.87;100155.59;4476147;32;34291;-79
2023/09/03 11:19:41;;;;;;;1.00;0.40;;;;;;;23.38;59.62;100141.75;4482808;32;33017;-78
2023/09/03 11:22:12;;;;;;;0.40;0.40;;;;;;;23.58;60.38;100152.94;4477222;32;33524;-78
2023/09/03 11:24:48;;;;;;;1.45;0.60;;;;;;;23.88;58.00;100138.84;4476806;32;33952;-78
2023/09/03 11:27:19;;;;;;;1.12;0.65;;;;;;;23.77;57.52;100139.47;4477026;32;34402;-78
2023/09/03 11:29:49;;;;;;;;;;;;;;;23.52;59.65;100148.87;4477114;32;33927;-80
2023/09/03 11:32:36;;;;;;;0.65;0.52;;;;;;;23.78;58.58;100134.09;4480724;32;33100;-78
2023/09/03 11:35:06;;;;;;;0.35;0.35;;;;;;;23.83;58.67;100142.59;4476825;32;33800;-78
2023/09/03 11:37:37;;;;;;;0.95;0.70;;;;;;;23.71;58.90;100140.69;4476383;32;33442;-79
2023/09/03 11:40:09;;;;;;;1.15;0.80;;;;;;;23.89;58.18;100146.66;4476624;32;34083;-78
2023/09/03 11:42:42;;;;;;;1.17;0.73;;;;;;;23.91;58.50;100144.78;4476045;32;33587;-78